Time,TemperatureF,DewpointF,PressureIn,WindDirection,WindDirectionDegrees,WindSpeedMPH,WindSpeedGustMPH,Humidity,HourlyPrecipIn,Conditions,Clouds,dailyrainin,SoftwareType,DateUTC
2013-02-10 00:00:00,21.7,17.3,30.41,SW,231,0.0,0.0,83,0.00,,,0.00,Wunderground v.1.13,2013-02-10 05:00:00,
2013-02-10 00:05:00,21.6,17.2,30.41,SW,231,0.0,0.0,83,0.00,,,0.00,Wunderground v.1.13,2013-02-10 05:05:00,
2013-02-10 00:10:00,21.5,17.1,30.41,SW,231,0.0,0.0,83,0.00,,,0.00,Wunderground v.1.13,2013-02-10 05:10:00,
2013-02-10 00:20:00,21.2,16.8,30.40,SW,231,0.0,0.0,83,0.00,,,0.00,Wunderground v.1.13,2013-02-10 05:20:00,
2013-02-10 00:25:00,21.1,16.7,30.40,SW,230,0.0,0.0,83,0.00,,,0.00,Wunderground v.1.13,2013-02-10 05:25:00,
2013-02-10 00:30:00,20.9,16.5,30.40,SW,231,0.0,0.0,83,0.00,,,0.00,Wunderground v.1.13,2013-02-10 05:30:00,
2013-02-10 00:40:00,20.7,16.4,30.40,SW,230,0.0,0.0,83,0.00,,,0.00,Wunderground v.1.13,2013-02-10 05:40:00,
2013-02-10 00:45:00,20.6,16.3,30.40,SW,231,0.0,0.0,83,0.00,,,0.00,Wunderground v.1.13,2013-02-10 05:45:00,
2013-02-10 00:50:00,20.5,16.2,30.40,SW,231,0.0,0.0,83,0.00,,,0.00,Wunderground v.1.13,2013-02-10 05:50:00,
2013-02-10 01:00:00,20.3,16.0,30.40,SW,231,0.0,0.0,83,0.00,,,0.00,Wunderground v.1.13,2013-02-10 06:00:00,
2013-02-10 01:05:00,20.2,15.9,30.40,SW,231,0.0,0.0,83,0.00,,,0.00,Wunderground v.1.13,2013-02-10 06:05:00,
2013-02-10 01:15:00,20.0,15.7,30.40,SW,231,0.0,0.0,83,0.00,,,0.00,Wunderground v.1.13,2013-02-10 06:15:00,
2013-02-10 01:20:00,19.9,15.6,30.40,SW,230,0.0,0.0,83,0.00,,,0.00,Wunderground v.1.13,2013-02-10 06:20:00,
2013-02-10 01:25:00,19.8,15.7,30.39,SW,231,0.0,0.0,84,0.00,,,0.00,Wunderground v.1.13,2013-02-10 06:25:00,
2013-02-10 01:35:00,19.7,15.6,30.39,SW,231,0.0,0.0,84,0.00,,,0.00,Wunderground v.1.13,2013-02-10 06:35:00,
2013-02-10 01:40:00,19.7,15.6,30.38,SW,230,0.0,0.0,84,0.00,,,0.00,Wunderground v.1.13,2013-02-10 06:40:00,
2013-02-10 01:45:00,19.7,15.6,30.38,SW,231,0.0,0.0,84,0.00,,,0.00,Wunderground v.1.13,2013-02-10 06:45:00,
2013-02-10 01:55:00,19.5,15.7,30.38,SW,230,0.0,0.0,85,0.00,,,0.00,Wunderground v.1.13,2013-02-10 06:55:00,
2013-02-10 02:00:00,19.4,15.6,30.38,SW,231,0.0,0.0,85,0.00,,,0.00,Wunderground v.1.13,2013-02-10 07:00:00,
2013-02-10 02:05:00,19.3,15.5,30.38,SW,231,0.0,0.0,85,0.00,,,0.00,Wunderground v.1.13,2013-02-10 07:05:00,
2013-02-10 02:15:00,19.2,15.4,30.38,SW,230,0.0,0.0,85,0.00,,,0.00,Wunderground v.1.13,2013-02-10 07:15:00,
2013-02-10 02:20:00,19.1,15.3,30.38,SW,230,0.0,0.0,85,0.00,,,0.00,Wunderground v.1.13,2013-02-10 07:20:00,
2013-02-10 02:30:00,18.9,15.1,30.38,SW,231,0.0,0.0,85,0.00,,,0.00,Wunderground v.1.13,2013-02-10 07:30:00,
2013-02-10 02:40:00,18.6,14.8,30.38,SW,230,0.0,0.0,85,0.00,,,0.00,Wunderground v.1.13,2013-02-10 07:40:00,
2013-02-10 02:45:00,18.5,14.7,30.38,SW,230,0.0,0.0,85,0.00,,,0.00,Wunderground v.1.13,2013-02-10 07:45:00,
2013-02-10 02:50:00,18.4,14.6,30.38,SW,231,0.0,0.0,85,0.00,,,0.00,Wunderground v.1.13,2013-02-10 07:50:00,
2013-02-10 02:55:00,18.4,14.6,30.38,SW,230,0.0,0.0,85,0.00,,,0.00,Wunderground v.1.13,2013-02-10 07:55:00,
2013-02-10 03:00:00,18.3,14.5,30.38,SW,231,0.0,0.0,85,0.00,,,0.00,Wunderground v.1.13,2013-02-10 08:00:00,
2013-02-10 03:05:00,18.3,14.5,30.37,SW,230,0.0,0.0,85,0.00,,,0.00,Wunderground v.1.13,2013-02-10 08:05:00,
2013-02-10 03:15:00,18.1,14.6,30.37,SW,231,0.0,0.0,86,0.00,,,0.00,Wunderground v.1.13,2013-02-10 08:15:00,
2013-02-10 03:20:00,18.1,14.6,30.37,SW,231,0.0,0.0,86,0.00,,,0.00,Wunderground v.1.13,2013-02-10 08:20:00,
2013-02-10 03:25:00,18.0,14.5,30.37,SW,231,0.0,0.0,86,0.00,,,0.00,Wunderground v.1.13,2013-02-10 08:25:00,
2013-02-10 03:35:00,17.9,14.4,30.37,SW,231,0.0,0.0,86,0.00,,,0.00,Wunderground v.1.13,2013-02-10 08:35:00,
2013-02-10 03:40:00,17.8,14.3,30.36,SW,231,0.0,0.0,86,0.00,,,0.00,Wunderground v.1.13,2013-02-10 08:40:00,
2013-02-10 03:45:00,17.8,14.3,30.36,SW,231,0.0,0.0,86,0.00,,,0.00,Wunderground v.1.13,2013-02-10 08:45:00,
2013-02-10 03:50:00,17.7,14.2,30.36,SW,231,0.0,0.0,86,0.00,,,0.00,Wunderground v.1.13,2013-02-10 08:50:00,
2013-02-10 03:55:00,17.6,14.1,30.36,SW,230,0.0,0.0,86,0.00,,,0.00,Wunderground v.1.13,2013-02-10 08:55:00,
2013-02-10 04:05:00,17.5,14.0,30.36,SW,231,0.0,0.0,86,0.00,,,0.00,Wunderground v.1.13,2013-02-10 09:05:00,
2013-02-10 04:15:00,17.3,13.8,30.35,SW,231,0.0,0.0,86,0.00,,,0.00,Wunderground v.1.13,2013-02-10 09:15:00,
2013-02-10 04:20:00,17.3,13.8,30.35,SW,230,0.0,0.0,86,0.00,,,0.00,Wunderground v.1.13,2013-02-10 09:20:00,
2013-02-10 04:25:00,17.2,13.7,30.35,SW,231,0.0,0.0,86,0.00,,,0.00,Wunderground v.1.13,2013-02-10 09:25:00,
2013-02-10 04:30:00,17.2,13.7,30.35,SW,231,0.0,0.0,86,0.00,,,0.00,Wunderground v.1.13,2013-02-10 09:30:00,
2013-02-10 04:40:00,17.0,13.5,30.34,SW,231,0.0,0.0,86,0.00,,,0.00,Wunderground v.1.13,2013-02-10 09:40:00,
2013-02-10 04:45:00,17.0,13.5,30.34,SW,231,0.0,0.0,86,0.00,,,0.00,Wunderground v.1.13,2013-02-10 09:45:00,
2013-02-10 04:50:00,16.9,13.4,30.35,SW,230,0.0,0.0,86,0.00,,,0.00,Wunderground v.1.13,2013-02-10 09:50:00,
2013-02-10 04:55:00,16.9,13.4,30.35,SW,231,0.0,0.0,86,0.00,,,0.00,Wunderground v.1.13,2013-02-10 09:55:00,
2013-02-10 05:05:00,16.9,13.7,30.35,SW,230,0.0,0.0,87,0.00,,,0.00,Wunderground v.1.13,2013-02-10 10:05:00,
2013-02-10 05:15:00,16.9,13.7,30.34,SW,230,0.0,0.0,87,0.00,,,0.00,Wunderground v.1.13,2013-02-10 10:15:00,
2013-02-10 05:25:00,17.0,13.8,30.34,SW,231,0.0,0.0,87,0.00,,,0.00,Wunderground v.1.13,2013-02-10 10:25:00,
2013-02-10 05:30:00,17.0,13.8,30.34,SW,231,0.0,0.0,87,0.00,,,0.00,Wunderground v.1.13,2013-02-10 10:30:00,
2013-02-10 05:35:00,17.0,13.8,30.34,SW,231,0.0,0.0,87,0.00,,,0.00,Wunderground v.1.13,2013-02-10 10:35:00,
2013-02-10 05:45:00,17.2,14.0,30.34,SW,231,0.0,0.0,87,0.00,,,0.00,Wunderground v.1.13,2013-02-10 10:45:00,
2013-02-10 05:50:00,17.2,14.0,30.34,SW,231,0.0,0.0,87,0.00,,,0.00,Wunderground v.1.13,2013-02-10 10:50:00,
2013-02-10 05:55:00,17.3,14.1,30.34,SW,231,0.0,0.0,87,0.00,,,0.00,Wunderground v.1.13,2013-02-10 10:55:00,
2013-02-10 06:05:00,17.4,14.2,30.34,SW,231,0.0,0.0,87,0.00,,,0.00,Wunderground v.1.13,2013-02-10 11:05:00,
2013-02-10 06:15:00,17.6,14.4,30.34,SW,230,0.0,0.0,87,0.00,,,0.00,Wunderground v.1.13,2013-02-10 11:15:00,
2013-02-10 06:25:00,17.7,14.5,30.34,SW,231,0.0,0.0,87,0.00,,,0.00,Wunderground v.1.13,2013-02-10 11:25:00,
2013-02-10 06:30:00,17.8,14.6,30.35,SW,231,0.0,0.0,87,0.00,,,0.00,Wunderground v.1.13,2013-02-10 11:30:00,
2013-02-10 06:35:00,17.8,14.6,30.35,SW,230,0.0,0.0,87,0.00,,,0.00,Wunderground v.1.13,2013-02-10 11:35:00,
2013-02-10 06:45:00,17.9,14.9,30.35,SW,231,0.0,0.0,88,0.00,,,0.00,Wunderground v.1.13,2013-02-10 11:45:00,
2013-02-10 06:55:00,17.9,14.9,30.35,SW,231,0.0,0.0,88,0.00,,,0.00,Wunderground v.1.13,2013-02-10 11:55:00,
2013-02-10 07:00:00,17.9,14.9,30.35,SW,231,0.0,0.0,88,0.00,,,0.00,Wunderground v.1.13,2013-02-10 12:00:00,
2013-02-10 07:05:00,17.9,14.9,30.36,SW,230,0.0,0.0,88,0.00,,,0.00,Wunderground v.1.13,2013-02-10 12:05:00,
2013-02-10 07:15:00,17.9,14.7,30.36,SW,230,0.0,0.0,87,0.00,,,0.00,Wunderground v.1.13,2013-02-10 12:15:00,
2013-02-10 07:25:00,17.8,14.6,30.35,SW,230,0.0,0.0,87,0.00,,,0.00,Wunderground v.1.13,2013-02-10 12:25:00,
2013-02-10 07:30:00,17.9,14.7,30.35,SW,231,0.0,0.0,87,0.00,,,0.00,Wunderground v.1.13,2013-02-10 12:30:00,
2013-02-10 07:40:00,17.9,14.7,30.35,SW,231,0.0,0.0,87,0.00,,,0.00,Wunderground v.1.13,2013-02-10 12:40:00,
2013-02-10 07:45:00,17.9,14.9,30.36,SW,231,0.0,1.0,88,0.00,,,0.00,Wunderground v.1.13,2013-02-10 12:45:00,
2013-02-10 07:50:00,17.9,14.9,30.36,SW,231,0.0,0.0,88,0.00,,,0.00,Wunderground v.1.13,2013-02-10 12:50:00,
2013-02-10 08:00:00,18.1,15.1,30.36,SW,231,0.0,0.0,88,0.00,,,0.00,Wunderground v.1.13,2013-02-10 13:00:00,
2013-02-10 08:05:00,18.3,15.3,30.35,SW,231,0.0,0.0,88,0.00,,,0.00,Wunderground v.1.13,2013-02-10 13:05:00,
2013-02-10 08:15:00,18.6,15.6,30.35,SW,231,0.0,0.0,88,0.00,,,0.00,Wunderground v.1.13,2013-02-10 13:15:00,
2013-02-10 08:25:00,18.9,15.9,30.35,SW,230,0.0,0.0,88,0.00,,,0.00,Wunderground v.1.13,2013-02-10 13:25:00,
2013-02-10 08:30:00,19.1,16.1,30.35,SW,230,0.0,0.0,88,0.00,,,0.00,Wunderground v.1.13,2013-02-10 13:30:00,
2013-02-10 08:35:00,19.3,16.3,30.34,SW,231,0.0,0.0,88,0.00,,,0.00,Wunderground v.1.13,2013-02-10 13:35:00,
2013-02-10 08:45:00,19.7,16.7,30.35,SW,231,0.0,0.0,88,0.00,,,0.00,Wunderground v.1.13,2013-02-10 13:45:00,
2013-02-10 08:50:00,19.8,16.8,30.35,SW,231,0.0,0.0,88,0.00,,,0.00,Wunderground v.1.13,2013-02-10 13:50:00,
2013-02-10 09:00:00,20.4,17.4,30.34,SW,230,0.0,0.0,88,0.00,,,0.00,Wunderground v.1.13,2013-02-10 14:00:00,
2013-02-10 09:05:00,20.7,17.7,30.34,SW,231,0.0,0.0,88,0.00,,,0.00,Wunderground v.1.13,2013-02-10 14:05:00,
2013-02-10 09:15:00,21.2,18.2,30.34,SW,231,0.0,1.0,88,0.00,,,0.00,Wunderground v.1.13,2013-02-10 14:15:00,
2013-02-10 09:20:00,21.4,18.4,30.34,SW,230,0.0,0.0,88,0.00,,,0.00,Wunderground v.1.13,2013-02-10 14:20:00,
2013-02-10 09:25:00,21.7,18.7,30.33,SW,231,0.0,1.0,88,0.00,,,0.00,Wunderground v.1.13,2013-02-10 14:25:00,
2013-02-10 09:35:00,22.3,19.3,30.32,SW,230,0.0,1.0,88,0.00,,,0.00,Wunderground v.1.13,2013-02-10 14:35:00,
2013-02-10 09:40:00,22.7,19.7,30.32,SW,231,0.0,1.0,88,0.00,,,0.00,Wunderground v.1.13,2013-02-10 14:40:00,
2013-02-10 09:45:00,23.0,20.0,30.32,SW,231,0.0,1.0,88,0.00,,,0.00,Wunderground v.1.13,2013-02-10 14:45:00,
2013-02-10 09:50:00,23.4,20.4,30.32,SW,230,0.0,0.0,88,0.00,,,0.00,Wunderground v.1.13,2013-02-10 14:50:00,
2013-02-10 10:00:00,24.7,21.7,30.31,SW,231,0.0,0.0,88,0.00,,,0.00,Wunderground v.1.13,2013-02-10 15:00:00,
2013-02-10 10:05:00,25.2,21.9,30.31,SW,230,0.0,1.0,87,0.00,,,0.00,Wunderground v.1.13,2013-02-10 15:05:00,
2013-02-10 10:15:00,26.0,21.8,30.32,SW,231,0.0,0.0,84,0.00,,,0.00,Wunderground v.1.13,2013-02-10 15:15:00,
2013-02-10 10:20:00,26.6,21.8,30.32,SW,230,0.0,1.0,82,0.00,,,0.00,Wunderground v.1.13,2013-02-10 15:20:00,
2013-02-10 10:30:00,28.1,22.7,30.30,South,169,0.0,2.0,80,0.00,,,0.00,Wunderground v.1.13,2013-02-10 15:30:00,
2013-02-10 10:35:00,28.7,23.0,30.30,SSE,165,1.0,1.0,79,0.00,,,0.00,Wunderground v.1.13,2013-02-10 15:35:00,
2013-02-10 10:40:00,29.1,23.4,30.29,SSE,165,0.0,2.0,79,0.00,,,0.00,Wunderground v.1.13,2013-02-10 15:40:00,
2013-02-10 10:45:00,29.7,23.1,30.30,South,169,0.0,1.0,76,0.00,,,0.00,Wunderground v.1.13,2013-02-10 15:45:00,
2013-02-10 10:50:00,30.3,23.6,30.30,South,186,0.0,2.0,76,0.00,,,0.00,Wunderground v.1.13,2013-02-10 15:50:00,
2013-02-10 10:55:00,31.3,24.3,30.30,SSW,208,0.0,3.0,75,0.00,,,0.00,Wunderground v.1.13,2013-02-10 15:55:00,
2013-02-10 11:05:00,33.7,25.0,30.30,SSW,207,0.0,1.0,70,0.00,,,0.00,Wunderground v.1.13,2013-02-10 16:05:00,
2013-02-10 11:15:00,34.9,25.0,30.29,SSW,192,0.0,4.0,67,0.00,,,0.00,Wunderground v.1.13,2013-02-10 16:15:00,
2013-02-10 11:20:00,35.6,25.4,30.29,South,184,0.0,2.0,66,0.00,,,0.00,Wunderground v.1.13,2013-02-10 16:20:00,
2013-02-10 11:25:00,36.4,26.1,30.29,South,187,0.0,3.0,66,0.00,,,0.00,Wunderground v.1.13,2013-02-10 16:25:00,
2013-02-10 11:30:00,37.4,26.7,30.29,South,187,0.0,3.0,65,0.00,,,0.00,Wunderground v.1.13,2013-02-10 16:30:00,
2013-02-10 11:40:00,38.4,26.1,30.29,South,175,1.0,1.0,61,0.00,,,0.00,Wunderground v.1.13,2013-02-10 16:40:00,
2013-02-10 11:45:00,38.7,24.8,30.28,SE,133,1.0,1.0,57,0.00,,,0.00,Wunderground v.1.13,2013-02-10 16:45:00,
2013-02-10 11:55:00,39.7,26.1,30.28,SE,138,0.0,3.0,58,0.00,,,0.00,Wunderground v.1.13,2013-02-10 16:55:00,
2013-02-10 12:05:00,40.4,25.5,30.27,SE,129,1.0,1.0,55,0.00,,,0.00,Wunderground v.1.13,2013-02-10 17:05:00,
2013-02-10 12:15:00,41.3,25.9,30.26,ESE,115,1.0,5.0,54,0.00,,,0.00,Wunderground v.1.13,2013-02-10 17:15:00,
2013-02-10 12:20:00,41.7,25.4,30.26,ENE,78,1.0,1.0,52,0.00,,,0.00,Wunderground v.1.13,2013-02-10 17:20:00,
2013-02-10 12:25:00,42.0,26.1,30.25,SSE,158,1.0,1.0,53,0.00,,,0.00,Wunderground v.1.13,2013-02-10 17:25:00,
2013-02-10 12:35:00,43.0,26.1,30.24,SSW,202,1.0,4.0,51,0.00,,,0.00,Wunderground v.1.13,2013-02-10 17:35:00,
2013-02-10 12:45:00,44.5,26.0,30.23,NE,53,1.0,5.0,48,0.00,,,0.00,Wunderground v.1.13,2013-02-10 17:45:00,
2013-02-10 12:50:00,44.9,26.4,30.22,SSE,150,1.0,1.0,48,0.00,,,0.00,Wunderground v.1.13,2013-02-10 17:50:00,
2013-02-10 13:15:00,47.1,27.9,30.20,SSW,192,1.0,1.0,47,0.00,,,0.00,Wunderground v.1.13,2013-02-10 18:15:00,
2013-02-10 13:20:00,48.1,27.2,30.21,SW,215,1.0,1.0,44,0.00,,,0.00,Wunderground v.1.13,2013-02-10 18:20:00,
2013-02-10 13:25:00,48.7,28.8,30.21,SW,223,1.0,1.0,46,0.00,,,0.00,Wunderground v.1.13,2013-02-10 18:25:00,
2013-02-10 13:30:00,48.9,27.4,30.20,West,269,1.0,1.0,43,0.00,,,0.00,Wunderground v.1.13,2013-02-10 18:30:00,
2013-02-10 13:40:00,49.1,28.1,30.19,South,178,1.0,4.0,44,0.00,,,0.00,Wunderground v.1.13,2013-02-10 18:40:00,
2013-02-10 13:45:00,49.0,27.5,30.18,SSE,153,0.0,3.0,43,0.00,,,0.00,Wunderground v.1.13,2013-02-10 18:45:00,
2013-02-10 13:50:00,49.2,27.6,30.18,SSE,153,0.0,1.0,43,0.00,,,0.00,Wunderground v.1.13,2013-02-10 18:50:00,
2013-02-10 13:55:00,49.3,28.3,30.17,SSE,153,0.0,2.0,44,0.00,,,0.00,Wunderground v.1.13,2013-02-10 18:55:00,
2013-02-10 14:00:00,49.5,27.9,30.16,SSE,154,0.0,1.0,43,0.00,,,0.00,Wunderground v.1.13,2013-02-10 19:00:00,
2013-02-10 14:05:00,49.7,28.1,30.16,SSE,154,0.0,1.0,43,0.00,,,0.00,Wunderground v.1.13,2013-02-10 19:05:00,
2013-02-10 14:15:00,49.9,28.8,30.15,SSE,152,0.0,1.0,44,0.00,,,0.00,Wunderground v.1.13,2013-02-10 19:15:00,
2013-02-10 14:20:00,50.3,29.2,30.15,ESE,119,1.0,1.0,44,0.00,,,0.00,Wunderground v.1.13,2013-02-10 19:20:00,
2013-02-10 14:30:00,51.2,29.4,30.14,South,173,1.0,3.0,43,0.00,,,0.00,Wunderground v.1.13,2013-02-10 19:30:00,
2013-02-10 14:35:00,51.7,27.5,30.14,SE,134,1.0,3.0,39,0.00,,,0.00,Wunderground v.1.13,2013-02-10 19:35:00,
2013-02-10 14:40:00,52.3,28.1,30.15,SW,234,2.0,5.0,39,0.00,,,0.00,Wunderground v.1.13,2013-02-10 19:40:00,
2013-02-10 14:45:00,53.0,27.4,30.15,ESE,114,2.0,2.0,37,0.00,,,0.00,Wunderground v.1.13,2013-02-10 19:45:00,
2013-02-10 14:50:00,53.4,27.8,30.15,ENE,75,1.0,4.0,37,0.00,,,0.00,Wunderground v.1.13,2013-02-10 19:50:00,
2013-02-10 15:00:00,53.9,28.2,30.15,SSW,213,1.0,4.0,37,0.00,,,0.00,Wunderground v.1.13,2013-02-10 20:00:00,
2013-02-10 15:05:00,54.1,28.4,30.14,ESE,113,1.0,1.0,37,0.00,,,0.00,Wunderground v.1.13,2013-02-10 20:05:00,
2013-02-10 15:15:00,54.0,27.6,30.14,ESE,119,1.0,1.0,36,0.00,,,0.00,Wunderground v.1.13,2013-02-10 20:15:00,
2013-02-10 15:25:00,53.9,28.2,30.14,SSW,208,1.0,1.0,37,0.00,,,0.00,Wunderground v.1.13,2013-02-10 20:25:00,
2013-02-10 15:30:00,53.8,28.1,30.14,SE,134,1.0,1.0,37,0.00,,,0.00,Wunderground v.1.13,2013-02-10 20:30:00,
2013-02-10 15:40:00,53.6,27.9,30.13,ESE,103,1.0,1.0,37,0.00,,,0.00,Wunderground v.1.13,2013-02-10 20:40:00,
2013-02-10 15:45:00,53.5,27.2,30.13,East,99,1.0,1.0,36,0.00,,,0.00,Wunderground v.1.13,2013-02-10 20:45:00,
2013-02-10 15:50:00,53.5,27.2,30.12,South,170,0.0,2.0,36,0.00,,,0.00,Wunderground v.1.13,2013-02-10 20:50:00,
2013-02-10 16:00:00,53.3,26.3,30.12,SSE,157,1.0,2.0,35,0.00,,,0.00,Wunderground v.1.13,2013-02-10 21:00:00,
2013-02-10 16:05:00,53.2,26.9,30.12,ESE,116,1.0,1.0,36,0.00,,,0.00,Wunderground v.1.13,2013-02-10 21:05:00,
2013-02-10 16:15:00,52.9,26.6,30.12,SE,131,1.0,1.0,36,0.00,,,0.00,Wunderground v.1.13,2013-02-10 21:15:00,
2013-02-10 16:20:00,52.8,27.2,30.12,SSE,159,1.0,1.0,37,0.00,,,0.00,Wunderground v.1.13,2013-02-10 21:20:00,
2013-02-10 16:25:00,52.6,27.0,30.12,ESE,103,1.0,1.0,37,0.00,,,0.00,Wunderground v.1.13,2013-02-10 21:25:00,
2013-02-10 16:30:00,52.5,26.9,30.12,SE,129,0.0,3.0,37,0.00,,,0.00,Wunderground v.1.13,2013-02-10 21:30:00,
2013-02-10 16:40:00,52.2,28.0,30.12,ESE,118,0.0,2.0,39,0.00,,,0.00,Wunderground v.1.13,2013-02-10 21:40:00,
2013-02-10 16:45:00,52.0,27.1,30.12,ESE,119,0.0,1.0,38,0.00,,,0.00,Wunderground v.1.13,2013-02-10 21:45:00,
2013-02-10 16:55:00,51.5,27.3,30.11,SE,127,1.0,1.0,39,0.00,,,0.00,Wunderground v.1.13,2013-02-10 21:55:00,
2013-02-10 17:00:00,51.3,28.4,30.10,NE,43,1.0,1.0,41,0.00,,,0.00,Wunderground v.1.13,2013-02-10 22:00:00,
2013-02-10 17:05:00,50.9,28.6,30.10,SSE,161,1.0,4.0,42,0.00,,,0.00,Wunderground v.1.13,2013-02-10 22:05:00,
2013-02-10 17:15:00,50.5,27.0,30.10,ESE,106,1.0,4.0,40,0.00,,,0.00,Wunderground v.1.13,2013-02-10 22:15:00,
2013-02-10 17:25:00,50.0,27.2,30.10,NNW,333,1.0,4.0,41,0.00,,,0.00,Wunderground v.1.13,2013-02-10 22:25:00,
2013-02-10 17:30:00,49.6,26.8,30.10,SSE,156,1.0,1.0,41,0.00,,,0.00,Wunderground v.1.13,2013-02-10 22:30:00,
2013-02-10 17:40:00,48.9,26.8,30.09,ENE,77,1.0,7.0,42,0.00,,,0.00,Wunderground v.1.13,2013-02-10 22:40:00,
2013-02-10 17:45:00,48.5,27.0,30.09,SSE,157,2.0,2.0,43,0.00,,,0.00,Wunderground v.1.13,2013-02-10 22:45:00,
2013-02-10 17:50:00,48.1,26.6,30.09,SE,133,1.0,4.0,43,0.00,,,0.00,Wunderground v.1.13,2013-02-10 22:50:00,
2013-02-10 17:55:00,47.7,26.3,30.08,ENE,75,1.0,5.0,43,0.00,,,0.00,Wunderground v.1.13,2013-02-10 22:55:00,
2013-02-10 18:05:00,47.0,26.7,30.08,ENE,63,1.0,3.0,45,0.00,,,0.00,Wunderground v.1.13,2013-02-10 23:05:00,
2013-02-10 18:15:00,46.5,26.3,30.08,NE,46,1.0,1.0,45,0.00,,,0.00,Wunderground v.1.13,2013-02-10 23:15:00,
2013-02-10 18:20:00,46.3,26.6,30.08,NE,38,1.0,4.0,46,0.00,,,0.00,Wunderground v.1.13,2013-02-10 23:20:00,
2013-02-10 18:25:00,46.1,27.0,30.09,ESE,109,1.0,1.0,47,0.00,,,0.00,Wunderground v.1.13,2013-02-10 23:25:00,
2013-02-10 18:30:00,45.9,26.3,30.09,NE,40,1.0,1.0,46,0.00,,,0.00,Wunderground v.1.13,2013-02-10 23:30:00,
2013-02-10 18:40:00,45.5,26.4,30.09,ESE,116,0.0,1.0,47,0.00,,,0.00,Wunderground v.1.13,2013-02-10 23:40:00,
2013-02-10 18:45:00,45.4,25.8,30.09,SE,129,0.0,2.0,46,0.00,,,0.00,Wunderground v.1.13,2013-02-10 23:45:00,
2013-02-10 18:50:00,45.3,26.2,30.09,SE,140,0.0,2.0,47,0.00,,,0.00,Wunderground v.1.13,2013-02-10 23:50:00,
2013-02-10 19:00:00,45.0,26.5,30.09,NE,51,0.0,3.0,48,0.00,,,0.00,Wunderground v.1.13,2013-02-11 00:00:00,
2013-02-10 19:05:00,45.0,26.0,30.09,WSW,250,0.0,2.0,47,0.00,,,0.00,Wunderground v.1.13,2013-02-11 00:05:00,
2013-02-10 19:15:00,44.8,25.8,30.09,East,98,0.0,2.0,47,0.00,,,0.00,Wunderground v.1.13,2013-02-11 00:15:00,
2013-02-10 19:25:00,44.7,26.2,30.09,SE,138,0.0,2.0,48,0.00,,,0.00,Wunderground v.1.13,2013-02-11 00:25:00,
2013-02-10 19:35:00,44.5,25.5,30.09,SE,139,0.0,2.0,47,0.00,,,0.00,Wunderground v.1.13,2013-02-11 00:35:00,
2013-02-10 19:40:00,44.5,26.0,30.09,NW,309,0.0,1.0,48,0.00,,,0.00,Wunderground v.1.13,2013-02-11 00:40:00,
2013-02-10 19:45:00,44.4,25.9,30.08,NNW,342,0.0,3.0,48,0.00,,,0.00,Wunderground v.1.13,2013-02-11 00:45:00,
2013-02-10 19:55:00,44.3,25.8,30.08,East,88,0.0,3.0,48,0.00,,,0.00,Wunderground v.1.13,2013-02-11 00:55:00,
2013-02-10 20:00:00,44.4,25.4,30.08,ENE,72,1.0,2.0,47,0.00,,,0.00,Wunderground v.1.13,2013-02-11 01:00:00,
2013-02-10 20:05:00,44.6,26.1,30.08,ENE,70,1.0,1.0,48,0.00,,,0.00,Wunderground v.1.13,2013-02-11 01:05:00,
2013-02-10 20:15:00,44.8,25.8,30.08,ENE,76,0.0,2.0,47,0.00,,,0.00,Wunderground v.1.13,2013-02-11 01:15:00,
2013-02-10 20:20:00,44.9,25.9,30.08,ENE,73,0.0,3.0,47,0.00,,,0.00,Wunderground v.1.13,2013-02-11 01:20:00,
2013-02-10 20:30:00,45.0,26.0,30.08,East,80,1.0,4.0,47,0.00,,,0.00,Wunderground v.1.13,2013-02-11 01:30:00,
2013-02-10 20:40:00,45.0,26.0,30.07,SE,132,1.0,1.0,47,0.00,,,0.00,Wunderground v.1.13,2013-02-11 01:40:00,
2013-02-10 20:50:00,44.9,25.9,30.06,SSE,163,0.0,1.0,47,0.00,,,0.00,Wunderground v.1.13,2013-02-11 01:50:00,
2013-02-10 20:55:00,45.0,26.0,30.06,South,190,1.0,1.0,47,0.00,,,0.00,Wunderground v.1.13,2013-02-11 01:55:00,
2013-02-10 21:05:00,44.9,26.4,30.05,South,175,0.0,2.0,48,0.00,,,0.00,Wunderground v.1.13,2013-02-11 02:05:00,
2013-02-10 21:15:00,44.7,26.2,30.05,South,179,0.0,1.0,48,0.00,,,0.00,Wunderground v.1.13,2013-02-11 02:15:00,
2013-02-10 21:25:00,44.6,26.1,30.05,East,96,0.0,2.0,48,0.00,,,0.00,Wunderground v.1.13,2013-02-11 02:25:00,
2013-02-10 21:30:00,44.6,26.1,30.05,ENE,71,0.0,1.0,48,0.00,,,0.00,Wunderground v.1.13,2013-02-11 02:30:00,
2013-02-10 21:40:00,44.5,26.5,30.04,NE,42,0.0,2.0,49,0.00,,,0.00,Wunderground v.1.13,2013-02-11 02:40:00,
2013-02-10 21:45:00,44.3,27.3,30.04,NE,41,0.0,1.0,51,0.00,,,0.00,Wunderground v.1.13,2013-02-11 02:45:00,
2013-02-10 21:55:00,44.3,25.8,30.04,East,93,0.0,2.0,48,0.00,,,0.00,Wunderground v.1.13,2013-02-11 02:55:00,
2013-02-10 22:05:00,44.4,26.4,30.03,SSE,156,0.0,2.0,49,0.00,,,0.00,Wunderground v.1.13,2013-02-11 03:05:00,
2013-02-10 22:15:00,44.7,26.2,30.02,ENE,65,0.0,2.0,48,0.00,,,0.00,Wunderground v.1.13,2013-02-11 03:15:00,
2013-02-10 22:20:00,44.8,26.3,30.01,ESE,107,0.0,2.0,48,0.00,,,0.00,Wunderground v.1.13,2013-02-11 03:20:00,
2013-02-10 22:30:00,45.0,26.5,30.01,ESE,119,0.0,3.0,48,0.00,,,0.00,Wunderground v.1.13,2013-02-11 03:30:00,
2013-02-10 22:35:00,45.1,26.1,30.01,South,178,1.0,1.0,47,0.00,,,0.00,Wunderground v.1.13,2013-02-11 03:35:00,
2013-02-10 22:40:00,45.2,26.1,30.01,East,95,1.0,1.0,47,0.00,,,0.00,Wunderground v.1.13,2013-02-11 03:40:00,
2013-02-10 22:45:00,45.3,26.2,30.01,East,95,0.0,3.0,47,0.00,,,0.00,Wunderground v.1.13,2013-02-11 03:45:00,
2013-02-10 22:50:00,45.3,26.7,30.01,ENE,63,0.0,2.0,48,0.00,,,0.00,Wunderground v.1.13,2013-02-11 03:50:00,
2013-02-10 22:55:00,45.4,26.3,30.00,ESE,121,1.0,4.0,47,0.00,,,0.00,Wunderground v.1.13,2013-02-11 03:55:00,
2013-02-10 23:05:00,45.3,26.2,30.00,NE,49,1.0,1.0,47,0.00,,,0.00,Wunderground v.1.13,2013-02-11 04:05:00,
2013-02-10 23:15:00,45.4,26.3,30.00,East,84,1.0,1.0,47,0.00,,,0.00,Wunderground v.1.13,2013-02-11 04:15:00,
2013-02-10 23:25:00,45.3,27.2,29.99,East,81,0.0,1.0,49,0.00,,,0.00,Wunderground v.1.13,2013-02-11 04:25:00,
2013-02-10 23:30:00,45.3,26.7,30.00,South,188,0.0,2.0,48,0.00,,,0.00,Wunderground v.1.13,2013-02-11 04:30:00,
2013-02-10 23:35:00,45.2,28.1,30.01,SSE,164,0.0,2.0,51,0.00,,,0.00,Wunderground v.1.13,2013-02-11 04:35:00,
2013-02-10 23:45:00,45.3,30.1,30.00,SSW,205,1.0,1.0,55,0.00,,,0.00,Wunderground v.1.13,2013-02-11 04:45:00,
2013-02-10 23:50:00,45.3,29.6,30.00,SE,138,1.0,3.0,54,0.00,,,0.00,Wunderground v.1.13,2013-02-11 04:50:00,